Skip Navigation LinksHome page > Weather > Current weather Skip Navigation Links

Current Weather

Elmira/Corning Regional, Elmira/Corning, N.Y.

For information only: do not use for flight planning or navigation.
Latest weather
Observation time Friday, March 23, 2018 2:53 AM EDT
Local time Friday, March 23, 2018 3:10 AM EDT
Flight conditions Visual Meteorological Conditions
Wind direction variable
Wind speed 3 mph
Visibility 10 mi.
Sky condition
Ceiling unlimited
Sky clear
Temperature 31°F
Dewpoint 20°F
Altimeter 30.06 in.Hg
Derived measurements
Relative humidity 63%
Wind chill 27°F
Density altitude -1054 ft.
Sea-level pressure 30.09 in.Hg
Fully automated report.
Automated weather observing station with precipitation discriminator.
METAR KELM 230653Z AUTO VRB03KT 10SM CLR M01/M07 A3006 RMK AO2 SLP188 T10061067


Location code

InnerDrive.Weather 4.0.6615.0 Release CLR 4.0.30319.42000
Copyright ©2018 Inner Drive Technology. All rights reserved. Portions Copyright ©1986-2018 David Braverman.

Find weather

Site navigation

Skip Navigation Links

Place info

Page info

PayPal - The safer, easier way to pay online!

Return home.

Copyright ©2018 Inner Drive Technology. Purveyors of fine, hand-crafted computer software. Page printed 2018-03-23T07:10:31 UTC.